All
Riversleigh Airport YRLH Weather
There is no TAF data available at YRLH or any nearby airports.
There is no METAR data available at YRLH. Showing METAR data for YCNY (19 mi N).
Recent YCNY METAR history (no data for YRLH)
| Date | Time (AEST) | Flight Rules | Wind Dir. | Speed | Type | Height AGL (ft) | Visibility | Temp (°C) | Temp (°F) | Dew Point (°C) | Dew Point (°F) | Rel. Humid. | Pressure | Density Altitude | Remarks |
|---|---|---|---|---|---|---|---|---|---|---|---|---|---|---|---|
| 08-May | 10:00AM | n/a | 170° | 14 kt | Missing | 24° | 75° | 7° | 44° | 34% | 1018 mb | 1,354 ft | |||
| 08-May | 09:00AM | n/a | 170° | 9 kt | Missing | 22° | 71° | 7° | 44° | 38% | 1017 mb | 1,144 ft | |||
| 08-May | 08:00AM | n/a | 190° | 7 kt | Missing | 19° | 66° | 6° | 42° | 43% | 1017 mb | 784 ft | |||
| 08-May | 07:00AM | n/a | 200° | 8 kt | Missing | 19° | 66° | 6° | 42° | 43% | 1017 mb | 784 ft | |||
| 08-May | 06:00AM | n/a | 200° | 7 kt | Missing | 19° | 66° | 7° | 44° | 46% | 1016 mb | 814 ft | |||
| 08-May | 05:00AM | n/a | 200° | 7 kt | Missing | 19° | 66° | 7° | 44° | 46% | 1016 mb | 814 ft | |||
| 08-May | 04:00AM | n/a | 200° | 7 kt | Missing | 20° | 68° | 8° | 46° | 46% | 1016 mb | 934 ft | |||
| 08-May | 03:00AM | n/a | 190° | 7 kt | Missing | 21° | 69° | 8° | 46° | 43% | 1016 mb | 1,054 ft | |||
| 08-May | 02:00AM | n/a | 190° | 8 kt | Missing | 22° | 71° | 8° | 46° | 41% | 1016 mb | 1,174 ft | |||
| 08-May | 01:00AM | n/a | 190° | 8 kt | Missing | 22° | 71° | 10° | 50° | 46% | 1016 mb | 1,174 ft | |||
| 08-May | 12:00AM | n/a | 190° | 8 kt | Missing | 23° | 73° | 11° | 51° | 47% | 1016 mb | 1,294 ft | |||
| 07-May | 11:00PM | n/a | 170° | 8 kt | Missing | 24° | 75° | 12° | 53° | 47% | 1016 mb | 1,414 ft | |||
| 07-May | 10:00PM | n/a | 170° | 10 kt | Missing | 25° | 77° | 12° | 53° | 44% | 1016 mb | 1,534 ft | |||
| 07-May | 09:00PM | n/a | 180° | 7 kt | Missing | 25° | 77° | 13° | 55° | 47% | 1016 mb | 1,534 ft | |||
| 07-May | 08:00PM | n/a | 160° | 4 kt | Missing | 24° | 75° | 14° | 57° | 54% | 1015 mb | 1,443 ft | |||
| 07-May | 07:00PM | n/a | 160° | 4 kt | Missing | 25° | 77° | 15° | 59° | 54% | 1015 mb | 1,563 ft | |||
| 07-May | 06:00PM | n/a | 170° | 5 kt | Missing | 28° | 82° | 14° | 57° | 42% | 1014 mb | 1,953 ft | |||
| 07-May | 05:00PM | n/a | 160° | 6 kt | Missing | 30° | 86° | 14° | 57° | 38% | 1013 mb | 2,222 ft | |||
| 07-May | 04:00PM | n/a | 160° | 10 kt | Missing | 31° | 87° | 14° | 57° | 36% | 1013 mb | 2,342 ft | |||
| 07-May | 03:00PM | n/a | 140° | 9 kt | Missing | 31° | 87° | 13° | 55° | 33% | 1013 mb | 2,342 ft | |||
| 07-May | 02:00PM | n/a | 150° | 8 kt | Missing | 30° | 86° | 13° | 55° | 35% | 1014 mb | 2,193 ft | |||
| 07-May | 01:00PM | n/a | 160° | 10 kt | Missing | 29° | 84° | 12° | 53° | 35% | 1015 mb | 2,043 ft | |||
| 07-May | 12:00PM | n/a | 170° | 9 kt | Missing | 28° | 82° | 11° | 51° | 35% | 1016 mb | 1,894 ft | |||
| 07-May | 11:00AM | n/a | 190° | 10 kt | Missing | 26° | 78° | 9° | 48° | 34% | 1016 mb | 1,654 ft |
Login
| Your browser is unsupported. upgrade your browser |
